Airfield :
LOGIN :

Register | Disclaimer

   EN    FR    IT 

 










Legend :    VFR   Marginal VFR   IFR   Intensive IFR   Very Intensive IFR
Visi :
Ceiling :
>= 8 km
>= 3000ft
5 to 8 km
1000 to 3000 ft
1500m to 5 km
500 to 1000 ft
800 to 1500m
200 to 500 ft
< 800m
< 200 ft
Symbols :   Thunderstorms  Fog  Heavy snow  Heavy precipitations  Wind > 20 kt
SIGMETs :     Misc.  Thunderstorms  Icing  Turbulence  Mountain Waves  Volcanic Ashes







- Airport Elevation : 44 ft
- IATA code : SOU
- Download approach charts


EGHI - Southampton

CURRENT METAR :
  • 171350Z 23002KT 7000 -RADZ FEW005 BKN008 13/12 Q1020

EXPIRED METARs :
  • 171320Z VRB03KT 7000 -RADZ FEW005 BKN008 13/12 Q1019
  • 171250Z 21004KT 7000 -RADZ FEW005 BKN007 13/12 Q1019
  • 171220Z 22003KT 7000 -RA SCT006 BKN014 13/12 Q1019
  • 171150Z 21005KT 8000 -RA SCT006 BKN014 13/12 Q1019
  • 171120Z VRB03KT 3000 -RADZ BR SCT005 BKN010 13/12 Q1019

TAF TAF EGHI
Valid from the 17 at 12:00 until the 17 at 21:00 UTC


171059Z 1712/1721 VRB04KT 5000 -RADZ SCT003 BKN010
TEMPO 1712/1714 2000 DZ BR BKN002
BECMG 1714/1717 9999 NSW FEW010 SCT020
PROB40
TEMPO 1717/1721 7000 BKN014
ATIS : +44 23 8062 7103
No reported NOTAMs for that airfield.



MET'MAP, your aeronautical weather chart ! - Copyright ORBIFLY December 2007 - Disclaimer

ORBIFLY MET'MAP TEAM :

Programming & Development : Alexandra Zaïnal
Concept & Development : Baudouin d'Aumeries
Co-Development & Prog : Marc-Olivier Méhu
Technical & hardware support : Manuel Goepfert

Contact : metmap@orbifly.com




SOURCES & CREDITS :

   NOAA